Thursday, May 24, 2018, 5:48 AM EDT
Back to Local

K1P1, Plymouth, Plymouth Municipal Airport

Location: Plymouth, NH, United States Lat: 43.779
Local Time: 5:48 AM EDT ( 9:48 GMT) Lon: -71.754
Time Zone: US/Eastern Elev: 505 ft

Show me the last for .
Show Decoded

2018-05-24 05:35 METAR K1P1 240935Z AUTO 00000KT 4SM BR CLR 06/06 A3005 RMK AO2 T00630060 =
2018-05-24 05:15 METAR K1P1 240915Z AUTO 00000KT 5SM BR CLR 06/06 A3004 RMK AO2 T00640060 =
2018-05-24 04:55 METAR K1P1 240855Z AUTO 00000KT 5SM BR CLR 06/06 A3004 RMK AO2 T00610057 =
2018-05-24 04:35 METAR K1P1 240835Z AUTO 00000KT 1SM BR VV007 06/06 A3003 RMK AO2 T00600055 =
2018-05-24 04:15 METAR K1P1 240815Z AUTO 00000KT 1 1/4SM BR BKN016 06/06 A3003 RMK AO2 T00640060
                 =
2018-05-24 03:55 METAR K1P1 240755Z AUTO 00000KT 2 1/2SM BR OVC018 07/06 A3003 RMK AO2 VIS 3/4V5
                 T00670063 =
2018-05-24 03:35 METAR K1P1 240735Z AUTO 00000KT 1 3/4SM BR BKN018 07/06 A3003 RMK AO2 T00680063
                 =
2018-05-24 03:15 METAR K1P1 240715Z AUTO 00000KT 7SM CLR 07/07 A3002 RMK AO2 T00730068 =
2018-05-24 02:55 METAR K1P1 240655Z AUTO 00000KT 3SM BR CLR 08/07 A3002 RMK AO2 T00750070 =
2018-05-24 02:35 METAR K1P1 240635Z AUTO 00000KT 5SM BR CLR 08/07 A3001 RMK AO2 T00750069 =
2018-05-24 02:15 METAR K1P1 240615Z AUTO 00000KT 7SM CLR 08/07 A3002 RMK AO2 T00800074 =
2018-05-24 01:55 METAR K1P1 240555Z AUTO 00000KT 10SM CLR 08/07 A3001 RMK AO2 T00800073 10210
                 20080 =
2018-05-24 01:35 METAR K1P1 240535Z AUTO 26003KT 10SM CLR 08/08 A3001 RMK AO2 T00840077 =
2018-05-24 01:15 METAR K1P1 240515Z AUTO 00000KT 5SM BR CLR 08/08 A3001 RMK AO2 T00840077 =
2018-05-24 00:55 METAR K1P1 240455Z AUTO 00000KT 2SM BR CLR 08/08 A3000 RMK AO2 VIS 1/2V5
                 T00820075 =
2018-05-24 00:35 METAR K1P1 240435Z AUTO 00000KT 2 1/2SM BR CLR 09/08 A3000 RMK AO2 T00870080 =
2018-05-24 00:15 METAR K1P1 240415Z AUTO 00000KT 10SM CLR 09/08 A2999 RMK AO2 T00890080 =
2018-05-23 23:55 METAR K1P1 240355Z AUTO 00000KT 10SM CLR 10/09 A2999 RMK AO2 T00950085 402600095
                 =
2018-05-23 23:35 METAR K1P1 240335Z AUTO 00000KT 10SM CLR 10/09 A2998 RMK AO2 T00960086 =
2018-05-23 23:15 METAR K1P1 240315Z AUTO 00000KT 10SM CLR 10/09 A2998 RMK AO2 T01030091 =
2018-05-23 22:55 METAR K1P1 240255Z AUTO 00000KT 10SM CLR 11/09 A2997 RMK AO2 T01080093 =
2018-05-23 22:35 METAR K1P1 240235Z AUTO 00000KT 10SM CLR 11/10 A2997 RMK AO2 T01130096 =
2018-05-23 22:15 METAR K1P1 240215Z AUTO 00000KT 10SM CLR 12/10 A2996 RMK AO2 LTG DSNT SE
                 T01200096 =
2018-05-23 21:55 METAR K1P1 240155Z AUTO 00000KT 10SM CLR 13/10 A2996 RMK AO2 T01310097 =
2018-05-23 21:35 METAR K1P1 240135Z AUTO 00000KT 10SM CLR 14/10 A2996 RMK AO2 T01390096 =
2018-05-23 21:15 METAR K1P1 240115Z AUTO 00000KT 10SM CLR 15/09 A2996 RMK AO2 T01490093 =
2018-05-23 20:55 METAR K1P1 240055Z AUTO 00000KT 10SM CLR 16/10 A2995 RMK AO2 T01580099 =
2018-05-23 20:35 METAR K1P1 240035Z AUTO 00000KT 10SM SCT070 19/08 A2994 RMK AO2 T01870083 =
2018-05-23 20:15 METAR K1P1 240015Z AUTO 00000KT 10SM BKN070 BKN085 20/06 A2993 RMK AO2 T02020061
                 =
2018-05-23 19:55 METAR K1P1 232355Z AUTO 33004KT 10SM SCT070 21/06 A2992 RMK AO2 T02110055 10260
                 20211 =
2018-05-23 19:35 METAR K1P1 232335Z AUTO 34007KT 10SM CLR 22/05 A2991 RMK AO2 T02160053 =
2018-05-23 19:15 METAR K1P1 232315Z AUTO 33005KT 10SM CLR 22/05 A2990 RMK AO2 T02230047 =
2018-05-23 18:55 METAR K1P1 232255Z AUTO 32007G18KT 10SM CLR 22/06 A2989 RMK AO2 T02240057 =
2018-05-23 18:35 METAR K1P1 232235Z AUTO 32007KT 10SM CLR 22/07 A2988 RMK AO2 T02240071 =
2018-05-23 18:15 METAR K1P1 232215Z AUTO 32007G14KT 10SM CLR 22/08 A2987 RMK AO2 T02210076 =
2018-05-23 17:55 METAR K1P1 232155Z AUTO 32006KT 10SM CLR 23/08 A2987 RMK AO2 T02300078 =
2018-05-23 17:35 METAR K1P1 232135Z AUTO 31012G16KT 10SM CLR 24/07 A2986 RMK AO2 T02350074 =
2018-05-23 17:15 METAR K1P1 232115Z AUTO 31012G22KT 10SM CLR 24/06 A2984 RMK AO2 T02400063 =
2018-05-23 16:55 METAR K1P1 232055Z AUTO 31009G21KT 10SM CLR 24/05 A2983 RMK AO2 T02440046 =
2018-05-23 16:35 METAR K1P1 232035Z AUTO 30012G25KT 10SM CLR 25/05 A2983 RMK AO2 T02530048 =
2018-05-23 16:15 METAR K1P1 232015Z AUTO 29008G20KT 250V310 10SM CLR 25/05 A2982 RMK AO2
                 T02520054 =
2018-05-23 15:55 METAR K1P1 231955Z AUTO 28009G25KT 10SM CLR 26/05 A2982 RMK AO2 LTG DSNT E
                 T02550045 =
2018-05-23 15:35 METAR K1P1 231935Z AUTO 30014G21KT 10SM CLR 25/06 A2982 RMK AO2 T02540056 =
2018-05-23 15:15 METAR K1P1 231915Z AUTO 30013G29KT 10SM CLR 26/05 A2983 RMK AO2 T02550046 =
2018-05-23 14:55 METAR K1P1 231855Z AUTO 29011G26KT 10SM CLR 26/05 A2982 RMK AO2 T02560049 =
2018-05-23 14:35 METAR K1P1 231835Z AUTO 30010G25KT 10SM CLR 26/06 A2982 RMK AO2 T02580063 =
2018-05-23 14:15 METAR K1P1 231815Z AUTO 31012G20KT 250V320 10SM CLR 26/08 A2982 RMK AO2
                 T02580084 =
2018-05-23 13:55 METAR K1P1 231755Z AUTO 31009KT 270V330 10SM CLR 25/09 A2983 RMK AO2 60001
                 T02470092 10251 20150 =
2018-05-23 13:35 METAR K1P1 231735Z AUTO 30007G15KT 10SM CLR 25/11 A2983 RMK AO2 T02480105 =
2018-05-23 13:15 METAR K1P1 231715Z AUTO 29007KT 10SM SCT060 SCT070 24/11 A2984 RMK AO2 T02420105
                 =
2018-05-23 12:55 METAR K1P1 231655Z AUTO 27006G16KT 10SM CLR 24/11 A2986 RMK AO2 T02360110 =
2018-05-23 12:35 METAR K1P1 231635Z AUTO 29007KT 10SM CLR 23/10 A2986 RMK AO2 T02330104 =
2018-05-23 12:15 METAR K1P1 231615Z AUTO 27008KT 10SM CLR 22/10 A2987 RMK AO2 T02230104 =
2018-05-23 11:55 METAR K1P1 231555Z AUTO 27008KT 10SM CLR 22/11 A2988 RMK AO2 T02160114 =
2018-05-23 11:35 METAR K1P1 231535Z AUTO 26009G15KT 10SM CLR 21/12 A2988 RMK AO2 T02110121 =
2018-05-23 11:15 METAR K1P1 231515Z AUTO 27011G17KT 10SM CLR 21/11 A2988 RMK AO2 T02090114 =
2018-05-23 10:55 METAR K1P1 231455Z AUTO 28009G15KT 10SM CLR 20/11 A2988 RMK AO2 60001 T02020112
                 =
2018-05-23 10:35 METAR K1P1 231435Z AUTO 29006KT 10SM CLR 20/11 A2988 RMK AO2 T01950114 =
2018-05-23 10:15 METAR K1P1 231415Z AUTO 28007KT 10SM CLR 19/12 A2988 RMK AO2 LTG DSNT N
                 T01900115 =
2018-05-23 09:55 METAR K1P1 231355Z AUTO 28004KT 10SM CLR 19/12 A2989 RMK AO2 T01850122 =
2018-05-23 09:15 METAR K1P1 231315Z AUTO 28008KT 10SM CLR 17/12 A2989 RMK AO2 T01720119 =
2018-05-23 08:55 METAR K1P1 231255Z AUTO 28009KT 10SM CLR 17/12 A2989 RMK AO2 P0001 T01660121 =
2018-05-23 08:35 METAR K1P1 231235Z AUTO 28004KT 10SM CLR 16/12 A2989 RMK AO2 P0001 T01640120 =
2018-05-23 08:15 METAR K1P1 231215Z AUTO 29004KT 10SM CLR 16/12 A2989 RMK AO2 P0001 T01550119 =
2018-05-23 07:55 METAR K1P1 231155Z AUTO 30006KT 10SM SCT012 SCT021 SCT028 15/12 A2989 RMK AO2
                 60003 70021 T01500119 10150 20116 =
2018-05-23 07:35 METAR K1P1 231135Z AUTO 00000KT 10SM SCT010 SCT014 BKN025 14/12 A2989 RMK AO2
                 T01410120 =
2018-05-23 07:15 METAR K1P1 231115Z AUTO 00000KT 10SM BKN010 BKN015 BKN025 14/12 A2989 RMK AO2
                 T01350116 =
2018-05-23 06:55 METAR K1P1 231055Z AUTO 00000KT 10SM BKN010 BKN023 13/12 A2988 RMK AO2 T01300115
                 =
2018-05-23 06:35 METAR K1P1 231035Z AUTO 00000KT 10SM SCT008 SCT021 SCT029 12/11 A2987 RMK AO2
                 T01210112 =
2018-05-23 06:15 METAR K1P1 231015Z AUTO 06004KT 10SM SCT008 12/11 A2986 RMK AO2 T01200110 =
2018-05-23 05:55 METAR K1P1 230955Z AUTO 00000KT 10SM SCT045 12/11 A2986 RMK AO2 T01190110 =

Support USWX by starting your Amazon purchase here.